Island Princess — ZCDG4 — position and weather

sailwx.info

Track history (hours):
 
Tides and Currents Weather Stations Pressure Air Temp Water Temp Dewpoint Dewpoint Depression Visibility Wind Speed Wind Dir Waves Ship Positions

Island Princess

Operator: Princess Cruises

Last reported at 2019-Sep-19 18:59 UTC. Time now 2019-Sep-19 19:10 UTC.
Position N 37°48' W 122°24'.

Type: Passenger vessel. MMSI: 310384000.

Date/timePositionNaut miles runAvg speedWind from/ knotsBaromVisibWave heightAir tempDewpointWater temp
2019-Sep-19 18:59N 37°48' W 122°24'0 0.0
2019-Sep-19 18:29N 37°48' W 122°24'0 0.0
2019-Sep-19 17:59N 37°48' W 122°24'0 0.0
2019-Sep-19 17:29N 37°48' W 122°24'0 0.0
2019-Sep-19 16:59N 37°48' W 122°24'0 0.0
2019-Sep-19 16:29N 37°48' W 122°24'0 0.0
2019-Sep-19 15:59N 37°48' W 122°24'0 0.0
2019-Sep-19 15:29N 37°48' W 122°24'0 0.0
2019-Sep-19 14:59N 37°48' W 122°24'0 0.0
2019-Sep-19 14:29N 37°48' W 122°24'0 0.0
2019-Sep-19 13:59N 37°48' W 122°24'0 0.0
2019-Sep-19 13:29N 37°48' W 122°24'0 0.0
2019-Sep-19 12:59N 37°48' W 122°24'0 0.0
2019-Sep-19 12:29N 37°48' W 122°24'0 0.0
2019-Sep-19 11:59N 37°48' W 122°24'0 0.0
2019-Sep-19 11:29N 37°48' W 122°24'0 0.0
2019-Sep-19 10:59N 37°48' W 122°24'0 0.0
2019-Sep-19 10:29N 37°48' W 122°24'0 0.0
2019-Sep-19 09:59N 37°48' W 122°24'0 0.0
2019-Sep-19 09:29N 37°48' W 122°24'0 0.0
2019-Sep-19 08:59N 37°48' W 122°24'0 0.0
2019-Sep-19 08:29N 37°48' W 122°24'0 0.0
2019-Sep-19 07:59N 37°48' W 122°24'0 0.0
2019-Sep-19 07:29N 37°48' W 122°24'0 0.0
2019-Sep-19 06:59N 37°48' W 122°24'0 0.0
2019-Sep-19 06:29N 37°48' W 122°24'0 0.0
2019-Sep-19 05:59N 37°48' W 122°24'0 0.0
2019-Sep-19 05:29N 37°48' W 122°24'0 0.0
2019-Sep-19 04:59N 37°48' W 122°24'0 0.0
2019-Sep-19 04:29N 37°48' W 122°24'0 0.0
2019-Sep-19 03:59N 37°48' W 122°24'0 0.0
2019-Sep-19 03:31N 37°48' W 122°24'0 0.3
2019-Sep-19 03:01N 37°49' W 122°24'3 6.5
2019-Sep-19 02:31N 37°49' W 122°28'612.9
2019-Sep-19 02:01N 37°47' W 122°36'510.7
2019-Sep-19 01:31N 37°46' W 122°42'5 9.8
2019-Sep-19 01:01N 37°47' W 122°48'5 9.8
2019-Sep-19 00:31N 37°49' W 122°54'5 9.8
2019-Sep-19 00:01N 37°52' W 122°59'5 9.7
2019-Sep-18 23:31N 37°54' W 123°04'5 9.3
2019-Sep-18 23:01N 37°57' W 123°10'5 9.8
2019-Sep-18 22:31N 38°00' W 123°14'510.0
2019-Sep-18 22:00N 38°04' W 123°18'5 9.9
2019-Sep-18 21:30N 38°08' W 123°22'816.2
2019-Sep-18 21:01N 38°14' W 123°28'1020.7
2019-Sep-18 20:30N 38°22' W 123°37'1121.2
2019-Sep-18 20:00N 38°31' W 123°45'44018.1
2019-Sep-17 19:47N 45°49' W 124°22'2611.6
2019-Sep-17 17:35N 46°15' W 124°20'215.7
2019-Sep-17 17:27N 46°17' W 124°21'10716.8
2019-Sep-17 11:02N 47°58' W 125°16'116.2
2019-Sep-17 11:00N 47°58' W 125°15'1016.2
2019-Sep-17 10:22N 48°08' W 125°12'616.0
2019-Sep-17 10:00N 48°14' W 125°10'816.5
2019-Sep-17 09:30N 48°22' W 125°08'816.6
2019-Sep-17 09:00N 48°29' W 125°02'817.0
2019-Sep-17 08:30N 48°31' W 124°50'918.5
2019-Sep-17 08:01N 48°29' W 124°36'1019.9
2019-Sep-17 07:31N 48°25' W 124°22'1019.2
2019-Sep-17 07:00N 48°21' W 124°09'918.8
2019-Sep-17 06:30N 48°18' W 123°56'1019.1
2019-Sep-17 06:00N 48°16' W 123°41'918.3
2019-Sep-17 05:31N 48°18' W 123°28'713.3
2019-Sep-17 05:00N 48°23' W 123°22'713.9
2019-Sep-17 04:30N 48°26' W 123°13'714.9
2019-Sep-17 04:00N 48°34' W 123°13'714.8
2019-Sep-17 03:30N 48°41' W 123°16'613.0
2019-Sep-17 03:00N 48°45' W 123°07'612.3
2019-Sep-17 02:30N 48°49' W 123°02'817.0
2019-Sep-17 02:00N 48°56' W 123°10'10645.7
2019-Sep-17 02:00N 48°48' W 123°00'1938.5 130 / 121009.910.8 14.513.414.0
2019-Sep-17 01:30N 49°01' W 123°20'816.2
2019-Sep-17 01:00N 49°09' W 123°24'816.8
2019-Sep-17 00:30N 49°17' W 123°20'714.7
2019-Sep-17 00:00N 49°19' W 123°09'2 4.7
2019-Sep-16 23:29N 49°17' W 123°06'0 0.0
2019-Sep-16 22:59N 49°17' W 123°06'0 0.0
2019-Sep-16 22:29N 49°17' W 123°06'0 0.0
2019-Sep-16 21:59N 49°17' W 123°06'0 0.0
2019-Sep-16 21:29N 49°17' W 123°06'0 0.0
2019-Sep-16 20:59N 49°17' W 123°06'0 0.0
2019-Sep-16 20:29N 49°17' W 123°06'0 0.0
2019-Sep-16 19:59N 49°17' W 123°06'0 0.0
2019-Sep-16 19:29N 49°17' W 123°06'0 0.0
2019-Sep-16 18:59N 49°17' W 123°06'0 0.0
2019-Sep-16 18:29N 49°17' W 123°06'0 0.0
2019-Sep-16 17:59N 49°17' W 123°06'0 0.0
2019-Sep-16 17:29N 49°17' W 123°06'0 0.0
2019-Sep-16 16:59N 49°17' W 123°06'0 0.0
2019-Sep-16 16:29N 49°17' W 123°06'0 0.0
2019-Sep-16 15:59N 49°17' W 123°06'0 0.0
2019-Sep-16 15:29N 49°17' W 123°06'0 0.0
2019-Sep-16 14:59N 49°17' W 123°06'0 0.0
2019-Sep-16 14:29N 49°17' W 123°06'0 0.0
2019-Sep-16 14:00N 49°17' W 123°06'0 0.3
2019-Sep-16 13:30N 49°17' W 123°06'3 5.7
2019-Sep-16 13:00N 49°19' W 123°10'5 9.2
2019-Sep-16 12:30N 49°18' W 123°17'4 9.0
2019-Sep-16 12:01N 49°18' W 123°23'5 9.4
2019-Sep-16 11:30N 49°17' W 123°31'4 8.1
2019-Sep-16 11:00N 49°17' W 123°37'4 8.7
2019-Sep-16 10:30N 49°18' W 123°43'4 8.7
2019-Sep-16 10:00N 49°19' W 123°50'5 9.2
2019-Sep-16 09:30N 49°21' W 123°56'4 9.0
2019-Sep-16 09:01N 49°22' W 124°03'4 8.9
2019-Sep-16 08:30N 49°23' W 124°09'4 8.4
2019-Sep-16 08:01N 49°25' W 124°15'4 8.5
2019-Sep-16 07:30N 49°26' W 124°21'4 8.4
2019-Sep-16 07:00N 49°28' W 124°27'5 8.9
2019-Sep-16 06:30N 49°32' W 124°32'5 9.1
2019-Sep-16 05:59N 49°35' W 124°37'5 9.6
2019-Sep-16 05:31N 49°38' W 124°42'5 9.3
2019-Sep-16 05:00N 49°42' W 124°47'4 8.9
2019-Sep-16 04:30N 49°45' W 124°51'5 9.5
2019-Sep-16 04:01N 49°49' W 124°56'5 9.5
2019-Sep-16 03:31N 49°52' W 125°01'5 9.3
2019-Sep-16 03:00N 49°55' W 125°06'4 9.0
2019-Sep-16 02:30N 49°59' W 125°11'510.0
2019-Sep-16 02:01N 50°03' W 125°14'612.0
2019-Sep-16 01:30N 50°07' W 125°21'713.4
2019-Sep-16 01:01N 50°14' W 125°23'6613.9
2019-Sep-15 20:16N 50°42' W 126°57'2117.4
2019-Sep-15 19:04N 50°50' W 127°27'117.4
2019-Sep-15 19:00N 50°50' W 127°29'917.5
2019-Sep-15 18:30N 50°55' W 127°40'917.4
2019-Sep-15 18:00N 51°01' W 127°51'816.9
2019-Sep-15 17:30N 51°05' W 128°02'816.3
2019-Sep-15 17:00N 51°10' W 128°13'815.5
2019-Sep-15 16:30N 51°14' W 128°23'816.4
2019-Sep-15 16:01N 51°19' W 128°34'816.8
2019-Sep-15 15:31N 51°25' W 128°44'815.1
2019-Sep-15 15:01N 51°31' W 128°51'815.1
2019-Sep-15 14:30N 51°38' W 128°52'815.3
2019-Sep-15 14:00N 51°45' W 128°57'815.4
2019-Sep-15 13:30N 51°51' W 129°04'815.5
2019-Sep-15 13:00N 51°57' W 129°12'816.3
2019-Sep-15 12:30N 52°03' W 129°21'815.5
2019-Sep-15 12:00N 52°09' W 129°30'815.8
2019-Sep-15 11:30N 52°15' W 129°38'815.9
2019-Sep-15 11:00N 52°21' W 129°47'6916.0
2019-Sep-15 06:42N 53°21' W 130°43'515.8
2019-Sep-15 06:24N 53°25' W 130°47'616.2
2019-Sep-15 06:00N 53°31' W 130°50'816.4
2019-Sep-15 05:30N 53°39' W 130°52'815.9
2019-Sep-15 05:00N 53°47' W 130°55'816.0
2019-Sep-15 04:31N 53°55' W 130°58'816.2
2019-Sep-15 04:01N 54°03' W 131°00'917.1
2019-Sep-15 03:31N 54°11' W 131°02'815.0
2019-Sep-15 03:01N 54°18' W 130°58'917.3
2019-Sep-15 02:30N 54°16' W 130°44'917.1
2019-Sep-15 02:00N 54°14' W 130°30'510.7
2019-Sep-15 01:30N 54°14' W 130°21'4 8.4
2019-Sep-15 01:00N 54°19' W 130°21'2 3.2
2019-Sep-15 00:29N 54°20' W 130°19'0 0.1
2019-Sep-14 23:56N 54°20' W 130°19'0 0.1
2019-Sep-14 23:26N 54°20' W 130°19'0 0.0
2019-Sep-14 22:53N 54°20' W 130°19'0 0.2
2019-Sep-14 22:29N 54°20' W 130°19'0 2.1
2019-Sep-14 22:20N 54°19' W 130°19'0 0.8
2019-Sep-14 21:56N 54°20' W 130°19'0 0.0
2019-Sep-14 21:20N 54°20' W 130°19'0 0.0
2019-Sep-14 20:53N 54°20' W 130°19'0 0.0
2019-Sep-14 20:26N 54°20' W 130°19'0 0.0
2019-Sep-14 19:59N 54°20' W 130°19'0 0.0
2019-Sep-14 19:29N 54°20' W 130°19'0 0.0
2019-Sep-14 18:56N 54°20' W 130°19'0 0.0
2019-Sep-14 18:29N 54°20' W 130°19'0 0.0
2019-Sep-14 17:59N 54°20' W 130°19'0 0.0
2019-Sep-14 17:29N 54°20' W 130°19'0 0.0
2019-Sep-14 16:59N 54°20' W 130°19'0 0.1
2019-Sep-14 16:26N 54°20' W 130°19'0 0.0
2019-Sep-14 15:50N 54°20' W 130°19'0 0.0
2019-Sep-14 15:29N 54°20' W 130°19'0 0.0
2019-Sep-14 15:00N 54°20' W 130°19'0 0.0
2019-Sep-14 14:31N 54°20' W 130°19'0 0.9
2019-Sep-14 14:00N 54°19' W 130°20'3 6.7
2019-Sep-14 13:30N 54°16' W 130°22'5 9.2
2019-Sep-14 13:00N 54°12' W 130°22'714.0
2019-Sep-14 12:30N 54°13' W 130°34'816.2
2019-Sep-14 12:00N 54°17' W 130°46'612.8
2019-Sep-14 11:30N 54°19' W 130°57'4 8.0
2019-Sep-14 11:00N 54°19' W 131°03'510.1
2019-Sep-14 10:30N 54°23' W 131°09'5 9.9
2019-Sep-14 10:00N 54°28' W 131°12'611.1
2019-Sep-14 09:30N 54°33' W 131°16'710.2
2019-Sep-14 08:52N 54°40' W 131°16'910.7
2019-Sep-14 08:04N 54°48' W 131°11'110.3
2019-Sep-14 07:59N 54°48' W 131°10'22 1.7
2019-Sep-13 18:35N 55°10' W 131°12'115.1
2019-Sep-13 18:30N 55°09' W 131°11'4517.4
2019-Sep-13 15:56N 54°25' W 131°09'819.1
2019-Sep-13 15:30N 54°17' W 131°04'918.9
2019-Sep-13 15:00N 54°08' W 131°01'918.8
2019-Sep-13 14:30N 53°58' W 130°59'918.5
2019-Sep-13 14:00N 53°49' W 130°56'1118.3
2019-Sep-13 13:24N 53°39' W 130°53'1318.2
2019-Sep-13 12:41N 53°26' W 130°48'9215.6
2019-Sep-13 06:48N 52°08' W 129°28'516.8
2019-Sep-13 06:30N 52°04' W 129°22'816.4
2019-Sep-13 06:00N 51°58' W 129°14'817.0
2019-Sep-13 05:31N 51°52' W 129°04'817.0
2019-Sep-13 05:00N 51°45' W 128°56'917.2
2019-Sep-13 04:31N 51°37' W 128°52'917.3
2019-Sep-13 04:00N 51°28' W 128°50'816.9
2019-Sep-13 03:31N 51°22' W 128°40'917.1
2019-Sep-13 03:01N 51°17' W 128°29'1717.0
2019-Sep-13 02:00N 51°07' W 128°07'817.1
2019-Sep-13 01:31N 51°03' W 127°56'815.2
2019-Sep-13 01:00N 50°58' W 127°45'8615.6
2019-Sep-12 19:30N 50°22' W 125°42'1016.2
2019-Sep-12 18:53N 50°20' W 125°27'614.6
2019-Sep-12 18:30N 50°15' W 125°23'714.0
2019-Sep-12 18:01N 50°08' W 125°21'713.1
2019-Sep-12 17:30N 50°03' W 125°15'814.8
2019-Sep-12 17:00N 49°57' W 125°08'817.0
2019-Sep-12 16:30N 49°51' W 124°59'916.9
2019-Sep-12 16:00N 49°45' W 124°50'916.9
2019-Sep-12 15:29N 49°39' W 124°40'816.8
2019-Sep-12 15:00N 49°33' W 124°32'917.2
2019-Sep-12 14:30N 49°27' W 124°23'816.8
2019-Sep-12 14:00N 49°24' W 124°11'816.6
2019-Sep-12 13:30N 49°23' W 123°58'816.6
2019-Sep-12 13:00N 49°21' W 123°45'4 8.1
2019-Sep-12 12:30N 49°21' W 123°39'0 0.5
2019-Sep-12 12:00N 49°21' W 123°39'612.8
2019-Sep-12 11:30N 49°19' W 123°29'714.7
2019-Sep-12 11:00N 49°19' W 123°18'611.7
2019-Sep-12 10:30N 49°19' W 123°09'2 4.8
2019-Sep-12 10:00N 49°17' W 123°06'0 0.0
2019-Sep-12 09:28N 49°17' W 123°06'0 0.0
2019-Sep-12 08:49N 49°17' W 123°06'0 0.0
2019-Sep-12 08:28N 49°17' W 123°06'0 0.0
2019-Sep-12 07:58N 49°17' W 123°06'0 0.0
2019-Sep-12 07:28N 49°17' W 123°06'0 0.0
2019-Sep-12 06:58N 49°17' W 123°06'0 0.0
2019-Sep-12 06:28N 49°17' W 123°06'0 0.0
2019-Sep-12 05:58N 49°17' W 123°06'0 0.0
2019-Sep-12 05:25N 49°17' W 123°06'0 0.0
2019-Sep-12 04:58N 49°17' W 123°06'0 0.0
2019-Sep-12 04:28N 49°17' W 123°06'0 0.0
2019-Sep-12 03:58N 49°17' W 123°06'0 0.0
2019-Sep-12 03:28N 49°17' W 123°06'0 0.0
2019-Sep-12 02:58N 49°17' W 123°06'0 0.0
2019-Sep-12 02:28N 49°17' W 123°06'511.3
2019-Sep-12 02:00N 49°12' W 123°06'5224.8 190 / 101021.710.8 19.013.815.0
2019-Sep-12 01:58N 49°17' W 123°06'0 0.0
2019-Sep-12 01:25N 49°17' W 123°06'0 0.0
2019-Sep-12 00:58N 49°17' W 123°06'0 0.0
2019-Sep-12 00:28N 49°17' W 123°06'0 0.0
2019-Sep-11 23:58N 49°17' W 123°06'0 0.0
2019-Sep-11 23:28N 49°17' W 123°06'0 0.0
2019-Sep-11 22:58N 49°17' W 123°06'0 0.0
2019-Sep-11 22:28N 49°17' W 123°06'0 0.0
2019-Sep-11 21:55N 49°17' W 123°06'0 0.0
2019-Sep-11 21:25N 49°17' W 123°06'0 0.0
2019-Sep-11 20:58N 49°17' W 123°06'0 0.0
2019-Sep-11 20:28N 49°17' W 123°06'0 0.0
2019-Sep-11 19:58N 49°17' W 123°06'0 0.0
2019-Sep-11 19:28N 49°17' W 123°06'0 0.0
2019-Sep-11 18:58N 49°17' W 123°06'0 0.0
2019-Sep-11 18:28N 49°17' W 123°06'0 0.0
2019-Sep-11 17:58N 49°17' W 123°06'0 0.0
2019-Sep-11 17:28N 49°17' W 123°06'0 0.0
2019-Sep-11 16:58N 49°17' W 123°06'0 0.0
2019-Sep-11 16:28N 49°17' W 123°06'0 0.0
2019-Sep-11 15:58N 49°17' W 123°06'0 0.0
2019-Sep-11 15:28N 49°17' W 123°06'0 0.0
2019-Sep-11 14:58N 49°17' W 123°06'0 0.0
2019-Sep-11 14:30N 49°17' W 123°06'1 1.0
2019-Sep-11 14:00N 49°18' W 123°06'3 5.4
2019-Sep-11 13:30N 49°19' W 123°10'3 6.5
2019-Sep-11 13:00N 49°19' W 123°15'4 7.9
2019-Sep-11 12:30N 49°18' W 123°21'612.0
2019-Sep-11 12:00N 49°17' W 123°30'611.9
2019-Sep-11 11:30N 49°18' W 123°39'612.6
2019-Sep-11 11:00N 49°20' W 123°48'612.4
2019-Sep-11 10:30N 49°22' W 123°57'816.3
2019-Sep-11 10:00N 49°24' W 124°09'918.0
2019-Sep-11 09:30N 49°27' W 124°22'917.8
2019-Sep-11 09:00N 49°33' W 124°33'918.1
2019-Sep-11 08:31N 49°39' W 124°42'918.2
2019-Sep-11 08:00N 49°46' W 124°52'917.3
2019-Sep-11 07:30N 49°52' W 125°02'917.2
2019-Sep-11 07:00N 49°58' W 125°11'715.0
2019-Sep-11 06:30N 50°05' W 125°16'612.0
2019-Sep-11 06:00N 50°10' W 125°22'3 7.0
2019-Sep-11 05:30N 50°13' W 125°23'710.3
2019-Sep-11 04:51N 50°20' W 125°25'6214.2
2019-Sep-11 00:30N 50°42' W 126°56'2017.5
2019-Sep-10 23:22N 50°49' W 127°25'616.2
2019-Sep-10 23:00N 50°52' W 127°34'917.3
2019-Sep-10 22:30N 50°57' W 127°45'611.9
2019-Sep-10 22:00N 51°01' W 127°52'612.9
2019-Sep-10 21:30N 51°04' W 128°00'612.9
2019-Sep-10 21:00N 51°08' W 128°09'612.8
2019-Sep-10 20:30N 51°12' W 128°17'713.2
2019-Sep-10 20:01N 51°16' W 128°26'815.1
2019-Sep-10 19:31N 51°20' W 128°35'714.7
2019-Sep-10 19:01N 51°25' W 128°45'714.4
2019-Sep-10 18:31N 51°31' W 128°51'815.2
2019-Sep-10 18:01N 51°38' W 128°52'815.2
2019-Sep-10 17:30N 51°45' W 128°57'715.0
2019-Sep-10 17:01N 51°51' W 129°04'815.1
2019-Sep-10 16:30N 51°57' W 129°12'815.1
2019-Sep-10 16:01N 52°03' W 129°20'815.1
2019-Sep-10 15:31N 52°08' W 129°28'714.8
2019-Sep-10 15:01N 52°14' W 129°36'714.5
2019-Sep-10 14:31N 52°19' W 129°44'714.7
2019-Sep-10 14:01N 52°25' W 129°52'715.0
2019-Sep-10 13:31N 52°32' W 129°58'815.3
2019-Sep-10 13:01N 52°38' W 130°04'815.2
2019-Sep-10 12:31N 52°45' W 130°11'815.0
2019-Sep-10 12:00N 52°51' W 130°17'1315.1
2019-Sep-10 11:09N 53°02' W 130°28'214.9
2019-Sep-10 11:00N 53°04' W 130°30'715.2
2019-Sep-10 10:31N 53°11' W 130°35'1019.1
2019-Sep-10 10:00N 53°20' W 130°42'918.7
2019-Sep-10 09:30N 53°28' W 130°49'1019.1
2019-Sep-10 09:00N 53°38' W 130°52'918.6
2019-Sep-10 08:30N 53°47' W 130°55'918.4
2019-Sep-10 08:01N 53°56' W 130°58'8477.4
2019-Sep-10 08:00N 53°48' W 130°54'1734.9 300 / 161013.710.8 14.012.515.0
2019-Sep-10 07:31N 54°04' W 131°01'917.5
2019-Sep-10 07:00N 54°13' W 131°02'917.9
2019-Sep-10 06:30N 54°22' W 131°06'917.6
2019-Sep-10 06:00N 54°30' W 131°13'917.0
2019-Sep-10 05:30N 54°38' W 131°15'917.4
2019-Sep-10 04:59N 54°47' W 131°11'817.4
2019-Sep-10 04:31N 54°55' W 131°06'1217.3
2019-Sep-10 03:48N 55°07' W 131°09'  
Track history (hours):
 
Tides and Currents Weather Stations Pressure Air Temp Water Temp Dewpoint Dewpoint Depression Visibility Wind Speed Wind Dir Waves Ship Positions

Island Princess

Operator: Princess Cruises

Last reported at 2019-Sep-19 18:59 UTC. Time now 2019-Sep-19 19:10 UTC.
Position N 37°48' W 122°24'.

Type: Passenger vessel. MMSI: 310384000.

Date/timePositionNaut miles runAvg speedWind from/ knotsBaromVisibWave heightAir tempDewpointWater temp
2019-Sep-19 18:59N 37°48' W 122°24'0 0.0
2019-Sep-19 18:29N 37°48' W 122°24'0 0.0
2019-Sep-19 17:59N 37°48' W 122°24'0 0.0
2019-Sep-19 17:29N 37°48' W 122°24'0 0.0
2019-Sep-19 16:59N 37°48' W 122°24'0 0.0
2019-Sep-19 16:29N 37°48' W 122°24'0 0.0
2019-Sep-19 15:59N 37°48' W 122°24'0 0.0
2019-Sep-19 15:29N 37°48' W 122°24'0 0.0
2019-Sep-19 14:59N 37°48' W 122°24'0 0.0
2019-Sep-19 14:29N 37°48' W 122°24'0 0.0
2019-Sep-19 13:59N 37°48' W 122°24'0 0.0
2019-Sep-19 13:29N 37°48' W 122°24'0 0.0
2019-Sep-19 12:59N 37°48' W 122°24'0 0.0
2019-Sep-19 12:29N 37°48' W 122°24'0 0.0
2019-Sep-19 11:59N 37°48' W 122°24'0 0.0
2019-Sep-19 11:29N 37°48' W 122°24'0 0.0
2019-Sep-19 10:59N 37°48' W 122°24'0 0.0
2019-Sep-19 10:29N 37°48' W 122°24'0 0.0
2019-Sep-19 09:59N 37°48' W 122°24'0 0.0
2019-Sep-19 09:29N 37°48' W 122°24'0 0.0
2019-Sep-19 08:59N 37°48' W 122°24'0 0.0
2019-Sep-19 08:29N 37°48' W 122°24'0 0.0
2019-Sep-19 07:59N 37°48' W 122°24'0 0.0
2019-Sep-19 07:29N 37°48' W 122°24'0 0.0
2019-Sep-19 06:59N 37°48' W 122°24'0 0.0
2019-Sep-19 06:29N 37°48' W 122°24'0 0.0
2019-Sep-19 05:59N 37°48' W 122°24'0 0.0
2019-Sep-19 05:29N 37°48' W 122°24'0 0.0
2019-Sep-19 04:59N 37°48' W 122°24'0 0.0
2019-Sep-19 04:29N 37°48' W 122°24'0 0.0
2019-Sep-19 03:59N 37°48' W 122°24'0 0.0
2019-Sep-19 03:31N 37°48' W 122°24'0 0.3
2019-Sep-19 03:01N 37°49' W 122°24'3 6.5
2019-Sep-19 02:31N 37°49' W 122°28'612.9
2019-Sep-19 02:01N 37°47' W 122°36'510.7
2019-Sep-19 01:31N 37°46' W 122°42'5 9.8
2019-Sep-19 01:01N 37°47' W 122°48'5 9.8
2019-Sep-19 00:31N 37°49' W 122°54'5 9.8
2019-Sep-19 00:01N 37°52' W 122°59'5 9.7
2019-Sep-18 23:31N 37°54' W 123°04'5 9.3
2019-Sep-18 23:01N 37°57' W 123°10'5 9.8
2019-Sep-18 22:31N 38°00' W 123°14'510.0
2019-Sep-18 22:00N 38°04' W 123°18'5 9.9
2019-Sep-18 21:30N 38°08' W 123°22'816.2
2019-Sep-18 21:01N 38°14' W 123°28'1020.7
2019-Sep-18 20:30N 38°22' W 123°37'1121.2
2019-Sep-18 20:00N 38°31' W 123°45'44018.1
2019-Sep-17 19:47N 45°49' W 124°22'2611.6
2019-Sep-17 17:35N 46°15' W 124°20'215.7
2019-Sep-17 17:27N 46°17' W 124°21'10716.8
2019-Sep-17 11:02N 47°58' W 125°16'116.2
2019-Sep-17 11:00N 47°58' W 125°15'1016.2
2019-Sep-17 10:22N 48°08' W 125°12'616.0
2019-Sep-17 10:00N 48°14' W 125°10'816.5
2019-Sep-17 09:30N 48°22' W 125°08'816.6
2019-Sep-17 09:00N 48°29' W 125°02'817.0
2019-Sep-17 08:30N 48°31' W 124°50'918.5
2019-Sep-17 08:01N 48°29' W 124°36'1019.9
2019-Sep-17 07:31N 48°25' W 124°22'1019.2
2019-Sep-17 07:00N 48°21' W 124°09'918.8
2019-Sep-17 06:30N 48°18' W 123°56'1019.1
2019-Sep-17 06:00N 48°16' W 123°41'918.3
2019-Sep-17 05:31N 48°18' W 123°28'713.3
2019-Sep-17 05:00N 48°23' W 123°22'713.9
2019-Sep-17 04:30N 48°26' W 123°13'714.9
2019-Sep-17 04:00N 48°34' W 123°13'714.8
2019-Sep-17 03:30N 48°41' W 123°16'613.0
2019-Sep-17 03:00N 48°45' W 123°07'612.3
2019-Sep-17 02:30N 48°49' W 123°02'817.0
2019-Sep-17 02:00N 48°56' W 123°10'10645.7
2019-Sep-17 02:00N 48°48' W 123°00'1938.5 130 / 121009.910.8 14.513.414.0
2019-Sep-17 01:30N 49°01' W 123°20'816.2
2019-Sep-17 01:00N 49°09' W 123°24'816.8
2019-Sep-17 00:30N 49°17' W 123°20'714.7
2019-Sep-17 00:00N 49°19' W 123°09'2 4.7
2019-Sep-16 23:29N 49°17' W 123°06'0 0.0
2019-Sep-16 22:59N 49°17' W 123°06'0 0.0
2019-Sep-16 22:29N 49°17' W 123°06'0 0.0
2019-Sep-16 21:59N 49°17' W 123°06'0 0.0
2019-Sep-16 21:29N 49°17' W 123°06'0 0.0
2019-Sep-16 20:59N 49°17' W 123°06'0 0.0
2019-Sep-16 20:29N 49°17' W 123°06'0 0.0
2019-Sep-16 19:59N 49°17' W 123°06'0 0.0
2019-Sep-16 19:29N 49°17' W 123°06'0 0.0
2019-Sep-16 18:59N 49°17' W 123°06'0 0.0
2019-Sep-16 18:29N 49°17' W 123°06'0 0.0
2019-Sep-16 17:59N 49°17' W 123°06'0 0.0
2019-Sep-16 17:29N 49°17' W 123°06'0 0.0
2019-Sep-16 16:59N 49°17' W 123°06'0 0.0
2019-Sep-16 16:29N 49°17' W 123°06'0 0.0
2019-Sep-16 15:59N 49°17' W 123°06'0 0.0
2019-Sep-16 15:29N 49°17' W 123°06'0 0.0
2019-Sep-16 14:59N 49°17' W 123°06'0 0.0
2019-Sep-16 14:29N 49°17' W 123°06'0 0.0
2019-Sep-16 14:00N 49°17' W 123°06'0 0.3
2019-Sep-16 13:30N 49°17' W 123°06'3 5.7
2019-Sep-16 13:00N 49°19' W 123°10'5 9.2
2019-Sep-16 12:30N 49°18' W 123°17'4 9.0
2019-Sep-16 12:01N 49°18' W 123°23'5 9.4
2019-Sep-16 11:30N 49°17' W 123°31'4 8.1
2019-Sep-16 11:00N 49°17' W 123°37'4 8.7
2019-Sep-16 10:30N 49°18' W 123°43'4 8.7
2019-Sep-16 10:00N 49°19' W 123°50'5 9.2
2019-Sep-16 09:30N 49°21' W 123°56'4 9.0
2019-Sep-16 09:01N 49°22' W 124°03'4 8.9
2019-Sep-16 08:30N 49°23' W 124°09'4 8.4
2019-Sep-16 08:01N 49°25' W 124°15'4 8.5
2019-Sep-16 07:30N 49°26' W 124°21'4 8.4
2019-Sep-16 07:00N 49°28' W 124°27'5 8.9
2019-Sep-16 06:30N 49°32' W 124°32'5 9.1
2019-Sep-16 05:59N 49°35' W 124°37'5 9.6
2019-Sep-16 05:31N 49°38' W 124°42'5 9.3
2019-Sep-16 05:00N 49°42' W 124°47'4 8.9
2019-Sep-16 04:30N 49°45' W 124°51'5 9.5
2019-Sep-16 04:01N 49°49' W 124°56'5 9.5
2019-Sep-16 03:31N 49°52' W 125°01'5 9.3
2019-Sep-16 03:00N 49°55' W 125°06'4 9.0
2019-Sep-16 02:30N 49°59' W 125°11'510.0
2019-Sep-16 02:01N 50°03' W 125°14'612.0
2019-Sep-16 01:30N 50°07' W 125°21'713.4
2019-Sep-16 01:01N 50°14' W 125°23'6613.9
2019-Sep-15 20:16N 50°42' W 126°57'2117.4
2019-Sep-15 19:04N 50°50' W 127°27'117.4
2019-Sep-15 19:00N 50°50' W 127°29'917.5
2019-Sep-15 18:30N 50°55' W 127°40'917.4
2019-Sep-15 18:00N 51°01' W 127°51'816.9
2019-Sep-15 17:30N 51°05' W 128°02'816.3
2019-Sep-15 17:00N 51°10' W 128°13'815.5
2019-Sep-15 16:30N 51°14' W 128°23'816.4
2019-Sep-15 16:01N 51°19' W 128°34'816.8
2019-Sep-15 15:31N 51°25' W 128°44'815.1
2019-Sep-15 15:01N 51°31' W 128°51'815.1
2019-Sep-15 14:30N 51°38' W 128°52'815.3
2019-Sep-15 14:00N 51°45' W 128°57'815.4
2019-Sep-15 13:30N 51°51' W 129°04'815.5
2019-Sep-15 13:00N 51°57' W 129°12'816.3
2019-Sep-15 12:30N 52°03' W 129°21'815.5
2019-Sep-15 12:00N 52°09' W 129°30'815.8
2019-Sep-15 11:30N 52°15' W 129°38'815.9
2019-Sep-15 11:00N 52°21' W 129°47'6916.0
2019-Sep-15 06:42N 53°21' W 130°43'515.8
2019-Sep-15 06:24N 53°25' W 130°47'616.2
2019-Sep-15 06:00N 53°31' W 130°50'816.4
2019-Sep-15 05:30N 53°39' W 130°52'815.9
2019-Sep-15 05:00N 53°47' W 130°55'816.0
2019-Sep-15 04:31N 53°55' W 130°58'816.2
2019-Sep-15 04:01N 54°03' W 131°00'917.1
2019-Sep-15 03:31N 54°11' W 131°02'815.0
2019-Sep-15 03:01N 54°18' W 130°58'917.3
2019-Sep-15 02:30N 54°16' W 130°44'917.1
2019-Sep-15 02:00N 54°14' W 130°30'510.7
2019-Sep-15 01:30N 54°14' W 130°21'4 8.4
2019-Sep-15 01:00N 54°19' W 130°21'2 3.2
2019-Sep-15 00:29N 54°20' W 130°19'0 0.1
2019-Sep-14 23:56N 54°20' W 130°19'0 0.1
2019-Sep-14 23:26N 54°20' W 130°19'0 0.0
2019-Sep-14 22:53N 54°20' W 130°19'0 0.2
2019-Sep-14 22:29N 54°20' W 130°19'0 2.1
2019-Sep-14 22:20N 54°19' W 130°19'0 0.8
2019-Sep-14 21:56N 54°20' W 130°19'0 0.0
2019-Sep-14 21:20N 54°20' W 130°19'0 0.0
2019-Sep-14 20:53N 54°20' W 130°19'0 0.0
2019-Sep-14 20:26N 54°20' W 130°19'0 0.0
2019-Sep-14 19:59N 54°20' W 130°19'0 0.0
2019-Sep-14 19:29N 54°20' W 130°19'0 0.0
2019-Sep-14 18:56N 54°20' W 130°19'0 0.0
2019-Sep-14 18:29N 54°20' W 130°19'0 0.0
2019-Sep-14 17:59N 54°20' W 130°19'0 0.0
2019-Sep-14 17:29N 54°20' W 130°19'0 0.0
2019-Sep-14 16:59N 54°20' W 130°19'0 0.1
2019-Sep-14 16:26N 54°20' W 130°19'0 0.0
2019-Sep-14 15:50N 54°20' W 130°19'0 0.0
2019-Sep-14 15:29N 54°20' W 130°19'0 0.0
2019-Sep-14 15:00N 54°20' W 130°19'0 0.0
2019-Sep-14 14:31N 54°20' W 130°19'0 0.9
2019-Sep-14 14:00N 54°19' W 130°20'3 6.7
2019-Sep-14 13:30N 54°16' W 130°22'5 9.2
2019-Sep-14 13:00N 54°12' W 130°22'714.0
2019-Sep-14 12:30N 54°13' W 130°34'816.2
2019-Sep-14 12:00N 54°17' W 130°46'612.8
2019-Sep-14 11:30N 54°19' W 130°57'4 8.0
2019-Sep-14 11:00N 54°19' W 131°03'510.1
2019-Sep-14 10:30N 54°23' W 131°09'5 9.9
2019-Sep-14 10:00N 54°28' W 131°12'611.1
2019-Sep-14 09:30N 54°33' W 131°16'710.2
2019-Sep-14 08:52N 54°40' W 131°16'910.7
2019-Sep-14 08:04N 54°48' W 131°11'110.3
2019-Sep-14 07:59N 54°48' W 131°10'22 1.7
2019-Sep-13 18:35N 55°10' W 131°12'115.1
2019-Sep-13 18:30N 55°09' W 131°11'4517.4
2019-Sep-13 15:56N 54°25' W 131°09'819.1
2019-Sep-13 15:30N 54°17' W 131°04'918.9
2019-Sep-13 15:00N 54°08' W 131°01'918.8
2019-Sep-13 14:30N 53°58' W 130°59'918.5
2019-Sep-13 14:00N 53°49' W 130°56'1118.3
2019-Sep-13 13:24N 53°39' W 130°53'1318.2
2019-Sep-13 12:41N 53°26' W 130°48'9215.6
2019-Sep-13 06:48N 52°08' W 129°28'516.8
2019-Sep-13 06:30N 52°04' W 129°22'816.4
2019-Sep-13 06:00N 51°58' W 129°14'817.0
2019-Sep-13 05:31N 51°52' W 129°04'817.0
2019-Sep-13 05:00N 51°45' W 128°56'917.2
2019-Sep-13 04:31N 51°37' W 128°52'917.3
2019-Sep-13 04:00N 51°28' W 128°50'816.9
2019-Sep-13 03:31N 51°22' W 128°40'917.1
2019-Sep-13 03:01N 51°17' W 128°29'1717.0
2019-Sep-13 02:00N 51°07' W 128°07'817.1
2019-Sep-13 01:31N 51°03' W 127°56'815.2
2019-Sep-13 01:00N 50°58' W 127°45'8615.6
2019-Sep-12 19:30N 50°22' W 125°42'1016.2
2019-Sep-12 18:53N 50°20' W 125°27'614.6
2019-Sep-12 18:30N 50°15' W 125°23'714.0
2019-Sep-12 18:01N 50°08' W 125°21'713.1
2019-Sep-12 17:30N 50°03' W 125°15'814.8
2019-Sep-12 17:00N 49°57' W 125°08'817.0
2019-Sep-12 16:30N 49°51' W 124°59'916.9
2019-Sep-12 16:00N 49°45' W 124°50'916.9
2019-Sep-12 15:29N 49°39' W 124°40'816.8
2019-Sep-12 15:00N 49°33' W 124°32'917.2
2019-Sep-12 14:30N 49°27' W 124°23'816.8
2019-Sep-12 14:00N 49°24' W 124°11'816.6
2019-Sep-12 13:30N 49°23' W 123°58'816.6
2019-Sep-12 13:00N 49°21' W 123°45'4 8.1
2019-Sep-12 12:30N 49°21' W 123°39'0 0.5
2019-Sep-12 12:00N 49°21' W 123°39'612.8
2019-Sep-12 11:30N 49°19' W 123°29'714.7
2019-Sep-12 11:00N 49°19' W 123°18'611.7
2019-Sep-12 10:30N 49°19' W 123°09'2 4.8
2019-Sep-12 10:00N 49°17' W 123°06'0 0.0
2019-Sep-12 09:28N 49°17' W 123°06'0 0.0
2019-Sep-12 08:49N 49°17' W 123°06'0 0.0
2019-Sep-12 08:28N 49°17' W 123°06'0 0.0
2019-Sep-12 07:58N 49°17' W 123°06'0 0.0
2019-Sep-12 07:28N 49°17' W 123°06'0 0.0
2019-Sep-12 06:58N 49°17' W 123°06'0 0.0
2019-Sep-12 06:28N 49°17' W 123°06'0 0.0
2019-Sep-12 05:58N 49°17' W 123°06'0 0.0
2019-Sep-12 05:25N 49°17' W 123°06'0 0.0
2019-Sep-12 04:58N 49°17' W 123°06'0 0.0
2019-Sep-12 04:28N 49°17' W 123°06'0 0.0
2019-Sep-12 03:58N 49°17' W 123°06'0 0.0
2019-Sep-12 03:28N 49°17' W 123°06'0 0.0
2019-Sep-12 02:58N 49°17' W 123°06'0 0.0
2019-Sep-12 02:28N 49°17' W 123°06'511.3
2019-Sep-12 02:00N 49°12' W 123°06'5224.8 190 / 101021.710.8 19.013.815.0
2019-Sep-12 01:58N 49°17' W 123°06'0 0.0
2019-Sep-12 01:25N 49°17' W 123°06'0 0.0
2019-Sep-12 00:58N 49°17' W 123°06'0 0.0
2019-Sep-12 00:28N 49°17' W 123°06'0 0.0
2019-Sep-11 23:58N 49°17' W 123°06'0 0.0
2019-Sep-11 23:28N 49°17' W 123°06'0 0.0
2019-Sep-11 22:58N 49°17' W 123°06'0 0.0
2019-Sep-11 22:28N 49°17' W 123°06'0 0.0
2019-Sep-11 21:55N 49°17' W 123°06'0 0.0
2019-Sep-11 21:25N 49°17' W 123°06'0 0.0
2019-Sep-11 20:58N 49°17' W 123°06'0 0.0
2019-Sep-11 20:28N 49°17' W 123°06'0 0.0
2019-Sep-11 19:58N 49°17' W 123°06'0 0.0
2019-Sep-11 19:28N 49°17' W 123°06'0 0.0
2019-Sep-11 18:58N 49°17' W 123°06'0 0.0
2019-Sep-11 18:28N 49°17' W 123°06'0 0.0
2019-Sep-11 17:58N 49°17' W 123°06'0 0.0
2019-Sep-11 17:28N 49°17' W 123°06'0 0.0
2019-Sep-11 16:58N 49°17' W 123°06'0 0.0
2019-Sep-11 16:28N 49°17' W 123°06'0 0.0
2019-Sep-11 15:58N 49°17' W 123°06'0 0.0
2019-Sep-11 15:28N 49°17' W 123°06'0 0.0
2019-Sep-11 14:58N 49°17' W 123°06'0 0.0
2019-Sep-11 14:30N 49°17' W 123°06'1 1.0
2019-Sep-11 14:00N 49°18' W 123°06'3 5.4
2019-Sep-11 13:30N 49°19' W 123°10'3 6.5
2019-Sep-11 13:00N 49°19' W 123°15'4 7.9
2019-Sep-11 12:30N 49°18' W 123°21'612.0
2019-Sep-11 12:00N 49°17' W 123°30'611.9
2019-Sep-11 11:30N 49°18' W 123°39'612.6
2019-Sep-11 11:00N 49°20' W 123°48'612.4
2019-Sep-11 10:30N 49°22' W 123°57'816.3
2019-Sep-11 10:00N 49°24' W 124°09'918.0
2019-Sep-11 09:30N 49°27' W 124°22'917.8
2019-Sep-11 09:00N 49°33' W 124°33'918.1
2019-Sep-11 08:31N 49°39' W 124°42'918.2
2019-Sep-11 08:00N 49°46' W 124°52'917.3
2019-Sep-11 07:30N 49°52' W 125°02'917.2
2019-Sep-11 07:00N 49°58' W 125°11'715.0
2019-Sep-11 06:30N 50°05' W 125°16'612.0
2019-Sep-11 06:00N 50°10' W 125°22'3 7.0
2019-Sep-11 05:30N 50°13' W 125°23'710.3
2019-Sep-11 04:51N 50°20' W 125°25'6214.2
2019-Sep-11 00:30N 50°42' W 126°56'2017.5
2019-Sep-10 23:22N 50°49' W 127°25'616.2
2019-Sep-10 23:00N 50°52' W 127°34'917.3
2019-Sep-10 22:30N 50°57' W 127°45'611.9
2019-Sep-10 22:00N 51°01' W 127°52'612.9
2019-Sep-10 21:30N 51°04' W 128°00'612.9
2019-Sep-10 21:00N 51°08' W 128°09'612.8
2019-Sep-10 20:30N 51°12' W 128°17'713.2
2019-Sep-10 20:01N 51°16' W 128°26'815.1
2019-Sep-10 19:31N 51°20' W 128°35'714.7
2019-Sep-10 19:01N 51°25' W 128°45'714.4
2019-Sep-10 18:31N 51°31' W 128°51'815.2
2019-Sep-10 18:01N 51°38' W 128°52'815.2
2019-Sep-10 17:30N 51°45' W 128°57'715.0
2019-Sep-10 17:01N 51°51' W 129°04'815.1
2019-Sep-10 16:30N 51°57' W 129°12'815.1
2019-Sep-10 16:01N 52°03' W 129°20'815.1
2019-Sep-10 15:31N 52°08' W 129°28'714.8
2019-Sep-10 15:01N 52°14' W 129°36'714.5
2019-Sep-10 14:31N 52°19' W 129°44'714.7
2019-Sep-10 14:01N 52°25' W 129°52'715.0
2019-Sep-10 13:31N 52°32' W 129°58'815.3
2019-Sep-10 13:01N 52°38' W 130°04'815.2
2019-Sep-10 12:31N 52°45' W 130°11'815.0
2019-Sep-10 12:00N 52°51' W 130°17'1315.1
2019-Sep-10 11:09N 53°02' W 130°28'214.9
2019-Sep-10 11:00N 53°04' W 130°30'715.2
2019-Sep-10 10:31N 53°11' W 130°35'1019.1
2019-Sep-10 10:00N 53°20' W 130°42'918.7
2019-Sep-10 09:30N 53°28' W 130°49'1019.1
2019-Sep-10 09:00N 53°38' W 130°52'918.6
2019-Sep-10 08:30N 53°47' W 130°55'918.4
2019-Sep-10 08:01N 53°56' W 130°58'8477.4
2019-Sep-10 08:00N 53°48' W 130°54'1734.9 300 / 161013.710.8 14.012.515.0
2019-Sep-10 07:31N 54°04' W 131°01'917.5
2019-Sep-10 07:00N 54°13' W 131°02'917.9
2019-Sep-10 06:30N 54°22' W 131°06'917.6
2019-Sep-10 06:00N 54°30' W 131°13'917.0
2019-Sep-10 05:30N 54°38' W 131°15'917.4
2019-Sep-10 04:59N 54°47' W 131°11'817.4
2019-Sep-10 04:31N 54°55' W 131°06'1217.3
2019-Sep-10 03:48N 55°07' W 131°09'  

Dump ship's entire track history